sensor_id;sensor_type;location;lat;lon;timestamp;pressure;altitude;pressure_sealevel;temperature;humidity
3082;BME280;1551;51.046;7.010;2023-02-19T00:02:40;101143.69;;;11.57;nan
3082;BME280;1551;51.046;7.010;2023-02-19T00:05:29;101165.81;;;11.73;nan
3082;BME280;1551;51.046;7.010;2023-02-19T00:08:18;101164.94;;;11.76;nan
3082;BME280;1551;51.046;7.010;2023-02-19T00:11:10;101155.50;;;11.78;nan
3082;BME280;1551;51.046;7.010;2023-02-19T00:14:00;101159.75;;;11.84;nan
3082;BME280;1551;51.046;7.010;2023-02-19T00:16:50;101155.47;;;11.86;nan
3082;BME280;1551;51.046;7.010;2023-02-19T00:19:39;101148.59;;;11.91;nan
3082;BME280;1551;51.046;7.010;2023-02-19T00:22:28;101142.59;;;11.90;nan
3082;BME280;1551;51.046;7.010;2023-02-19T00:25:17;101155.44;;;11.90;nan
3082;BME280;1551;51.046;7.010;2023-02-19T00:28:05;101155.41;;;11.89;nan
3082;BME280;1551;51.046;7.010;2023-02-19T00:30:54;101143.44;;;11.92;nan
3082;BME280;1551;51.046;7.010;2023-02-19T00:33:44;101148.59;;;11.89;nan
3082;BME280;1551;51.046;7.010;2023-02-19T00:36:36;101135.81;;;11.86;nan
3082;BME280;1551;51.046;7.010;2023-02-19T00:39:25;101136.63;;;11.90;nan
3082;BME280;1551;51.046;7.010;2023-02-19T00:42:14;101130.69;;;11.82;nan
3082;BME280;1551;51.046;7.010;2023-02-19T00:45:03;101135.81;;;11.82;nan
3082;BME280;1551;51.046;7.010;2023-02-19T00:47:53;101140.09;;;11.83;nan
3082;BME280;1551;51.046;7.010;2023-02-19T00:50:43;101140.13;;;11.81;nan
3082;BME280;1551;51.046;7.010;2023-02-19T00:53:32;101108.56;;;11.68;nan
3082;BME280;1551;51.046;7.010;2023-02-19T00:56:21;101131.53;;;11.82;nan
3082;BME280;1551;51.046;7.010;2023-02-19T00:59:10;101127.28;;;11.81;nan
3082;BME280;1551;51.046;7.010;2023-02-19T01:01:59;101139.22;;;11.85;nan
3082;BME280;1551;51.046;7.010;2023-02-19T01:04:47;101127.28;;;11.80;nan
3082;BME280;1551;51.046;7.010;2023-02-19T01:07:37;101124.69;;;11.83;nan
3082;BME280;1551;51.046;7.010;2023-02-19T01:10:26;101122.16;;;11.80;nan
3082;BME280;1551;51.046;7.010;2023-02-19T01:13:15;101122.13;;;11.84;nan
3082;BME280;1551;51.046;7.010;2023-02-19T01:16:15;101128.97;;;11.85;nan
3082;BME280;1551;51.046;7.010;2023-02-19T01:19:04;101128.09;;;11.86;nan
3082;BME280;1551;51.046;7.010;2023-02-19T01:21:53;101100.81;;;11.76;nan
3082;BME280;1551;51.046;7.010;2023-02-19T01:24:43;101129.75;;;11.92;nan
3082;BME280;1551;51.046;7.010;2023-02-19T01:27:32;101111.88;;;11.86;nan
3082;BME280;1551;51.046;7.010;2023-02-19T01:30:21;101113.53;;;11.87;nan
3082;BME280;1551;51.046;7.010;2023-02-19T01:33:10;101117.78;;;11.95;nan
3082;BME280;1551;51.046;7.010;2023-02-19T01:36:02;101102.41;;;11.91;nan
3082;BME280;1551;51.046;7.010;2023-02-19T01:38:52;101117.75;;;11.97;nan
3082;BME280;1551;51.046;7.010;2023-02-19T01:41:41;101114.34;;;11.95;nan
3082;BME280;1551;51.046;7.010;2023-02-19T01:47:23;101109.25;;;11.90;nan
3082;BME280;1551;51.046;7.010;2023-02-19T01:50:12;101100.63;;;11.96;nan
3082;BME280;1551;51.046;7.010;2023-02-19T01:53:02;101106.63;;;11.96;nan
3082;BME280;1551;51.046;7.010;2023-02-19T01:55:55;101102.38;;;11.95;nan
3082;BME280;1551;51.046;7.010;2023-02-19T01:58:47;101079.38;;;11.82;nan
3082;BME280;1551;51.046;7.010;2023-02-19T02:01:38;101110.06;;;11.94;nan
3082;BME280;1551;51.046;7.010;2023-02-19T02:04:29;101120.34;;;11.92;nan
3082;BME280;1551;51.046;7.010;2023-02-19T02:07:18;101122.09;;;11.87;nan
3082;BME280;1551;51.046;7.010;2023-02-19T02:10:26;101128.97;;;11.85;nan
3082;BME280;1551;51.046;7.010;2023-02-19T02:13:15;101108.44;;;11.85;nan
3082;BME280;1551;51.046;7.010;2023-02-19T02:16:23;101112.63;;;11.95;nan
3082;BME280;1551;51.046;7.010;2023-02-19T02:22:58;101105.75;;;11.96;nan
3082;BME280;1551;51.046;7.010;2023-02-19T02:29:30;101114.38;;;11.92;nan
3082;BME280;1551;51.046;7.010;2023-02-19T02:32:25;101101.59;;;11.86;nan
3082;BME280;1551;51.046;7.010;2023-02-19T02:35:15;101101.56;;;11.90;nan
3082;BME280;1551;51.046;7.010;2023-02-19T02:38:10;101100.72;;;11.87;nan
3082;BME280;1551;51.046;7.010;2023-02-19T02:41:01;101104.09;;;11.95;nan
3082;BME280;1551;51.046;7.010;2023-02-19T02:43:52;101098.19;;;11.85;nan
3082;BME280;1551;51.046;7.010;2023-02-19T02:46:43;101099.03;;;11.84;nan
3082;BME280;1551;51.046;7.010;2023-02-19T02:49:34;101102.41;;;11.91;nan
3082;BME280;1551;51.046;7.010;2023-02-19T02:52:44;101089.66;;;11.82;nan
3082;BME280;1551;51.046;7.010;2023-02-19T02:55:55;101099.91;;;11.86;nan
3082;BME280;1551;51.046;7.010;2023-02-19T02:58:45;101103.34;;;11.84;nan
3082;BME280;1551;51.046;7.010;2023-02-19T03:01:44;101105.84;;;11.87;nan
3082;BME280;1551;51.046;7.010;2023-02-19T03:05:19;101105.03;;;11.83;nan
3082;BME280;1551;51.046;7.010;2023-02-19T03:08:33;101105.84;;;11.90;nan
3082;BME280;1551;51.046;7.010;2023-02-19T03:11:25;101111.00;;;11.85;nan
3082;BME280;1551;51.046;7.010;2023-02-19T03:14:44;101112.69;;;11.91;nan
3082;BME280;1551;51.046;7.010;2023-02-19T03:17:59;101114.38;;;11.89;nan
3082;BME280;1551;51.046;7.010;2023-02-19T03:21:09;101116.94;;;11.90;nan
3082;BME280;1551;51.046;7.010;2023-02-19T03:24:02;101119.53;;;11.87;nan
3082;BME280;1551;51.046;7.010;2023-02-19T03:27:11;101125.56;;;11.83;nan
3082;BME280;1551;51.046;7.010;2023-02-19T03:30:12;101134.03;;;11.90;nan
3082;BME280;1551;51.046;7.010;2023-02-19T03:33:16;101120.41;;;11.86;nan
3082;BME280;1551;51.046;7.010;2023-02-19T03:36:10;101135.78;;;11.88;nan
3082;BME280;1551;51.046;7.010;2023-02-19T03:39:03;101131.50;;;11.88;nan
3082;BME280;1551;51.046;7.010;2023-02-19T03:45:26;101116.25;;;11.70;nan
3082;BME280;1551;51.046;7.010;2023-02-19T03:54:22;101149.47;;;11.85;nan
3082;BME280;1551;51.046;7.010;2023-02-19T03:57:23;101147.78;;;11.86;nan
3082;BME280;1551;51.046;7.010;2023-02-19T04:00:17;101156.31;;;11.86;nan
3082;BME280;1551;51.046;7.010;2023-02-19T04:03:16;101153.75;;;11.86;nan
3082;BME280;1551;51.046;7.010;2023-02-19T04:06:19;101168.28;;;11.86;nan
3082;BME280;1551;51.046;7.010;2023-02-19T04:09:12;101161.44;;;11.85;nan
3082;BME280;1551;51.046;7.010;2023-02-19T04:12:05;101180.25;;;11.85;nan
3082;BME280;1551;51.046;7.010;2023-02-19T04:15:02;101168.28;;;11.84;nan
3082;BME280;1551;51.046;7.010;2023-02-19T04:17:56;101180.25;;;11.82;nan
3082;BME280;1551;51.046;7.010;2023-02-19T04:20:47;101180.31;;;11.79;nan
3082;BME280;1551;51.046;7.010;2023-02-19T04:23:39;101176.88;;;11.80;nan
3082;BME280;1551;51.046;7.010;2023-02-19T04:26:33;101167.50;;;11.74;nan
3082;BME280;1551;51.046;7.010;2023-02-19T04:29:23;101183.75;;;11.75;nan
3082;BME280;1551;51.046;7.010;2023-02-19T04:32:12;101188.88;;;11.73;nan
3082;BME280;1551;51.046;7.010;2023-02-19T04:35:01;101191.47;;;11.70;nan
3082;BME280;1551;51.046;7.010;2023-02-19T04:37:50;101193.19;;;11.68;nan
3082;BME280;1551;51.046;7.010;2023-02-19T04:40:39;101202.59;;;11.69;nan
3082;BME280;1551;51.046;7.010;2023-02-19T04:43:28;101199.16;;;11.67;nan
3082;BME280;1551;51.046;7.010;2023-02-19T04:46:17;101204.28;;;11.70;nan
3082;BME280;1551;51.046;7.010;2023-02-19T04:49:06;101211.97;;;11.63;nan
3082;BME280;1551;51.046;7.010;2023-02-19T04:51:55;101207.72;;;11.63;nan
3082;BME280;1551;51.046;7.010;2023-02-19T04:54:44;101207.75;;;11.60;nan
3082;BME280;1551;51.046;7.010;2023-02-19T04:57:34;101209.47;;;11.60;nan
3082;BME280;1551;51.046;7.010;2023-02-19T05:00:23;101212.91;;;11.57;nan
3082;BME280;1551;51.046;7.010;2023-02-19T05:03:12;101213.72;;;11.61;nan
3082;BME280;1551;51.046;7.010;2023-02-19T05:06:06;101221.41;;;11.62;nan
3082;BME280;1551;51.046;7.010;2023-02-19T05:08:56;101225.69;;;11.56;nan
3082;BME280;1551;51.046;7.010;2023-02-19T05:11:45;101223.09;;;11.63;nan
3082;BME280;1551;51.046;7.010;2023-02-19T05:14:34;101228.22;;;11.66;nan
3082;BME280;1551;51.046;7.010;2023-02-19T05:17:22;101237.66;;;11.58;nan
3082;BME280;1551;51.046;7.010;2023-02-19T05:20:12;101235.06;;;11.61;nan
3082;BME280;1551;51.046;7.010;2023-02-19T05:23:02;101244.50;;;11.56;nan
3082;BME280;1551;51.046;7.010;2023-02-19T05:25:51;101240.31;;;11.43;nan
3082;BME280;1551;51.046;7.010;2023-02-19T05:28:40;101239.47;;;11.41;nan
3082;BME280;1551;51.046;7.010;2023-02-19T05:31:29;101250.56;;;11.40;nan
3082;BME280;1551;51.046;7.010;2023-02-19T05:34:21;101261.69;;;11.41;nan
3082;BME280;1551;51.046;7.010;2023-02-19T05:37:10;101257.41;;;11.41;nan
3082;BME280;1551;51.046;7.010;2023-02-19T05:39:59;101257.41;;;11.40;nan
3082;BME280;1551;51.046;7.010;2023-02-19T05:42:49;101269.38;;;11.44;nan
3082;BME280;1551;51.046;7.010;2023-02-19T05:45:39;101267.63;;;11.47;nan
3082;BME280;1551;51.046;7.010;2023-02-19T05:48:28;101273.63;;;11.43;nan
3082;BME280;1551;51.046;7.010;2023-02-19T05:51:22;101283.88;;;11.45;nan
3082;BME280;1551;51.046;7.010;2023-02-19T05:54:11;101275.34;;;11.43;nan
3082;BME280;1551;51.046;7.010;2023-02-19T05:57:00;101284.72;;;11.42;nan
3082;BME280;1551;51.046;7.010;2023-02-19T05:59:49;101286.44;;;11.42;nan
3082;BME280;1551;51.046;7.010;2023-02-19T06:02:38;101295.81;;;11.50;nan
3082;BME280;1551;51.046;7.010;2023-02-19T06:05:28;101295.84;;;11.46;nan
3082;BME280;1551;51.046;7.010;2023-02-19T06:08:17;101306.09;;;11.43;nan
3082;BME280;1551;51.046;7.010;2023-02-19T06:11:06;101301.88;;;11.34;nan
3082;BME280;1551;51.046;7.010;2023-02-19T06:13:55;101306.16;;;11.29;nan
3082;BME280;1551;51.046;7.010;2023-02-19T06:16:44;101309.56;;;11.28;nan
3082;BME280;1551;51.046;7.010;2023-02-19T06:19:33;101305.31;;;11.27;nan
3082;BME280;1551;51.046;7.010;2023-02-19T06:22:22;101311.28;;;11.29;nan
3082;BME280;1551;51.046;7.010;2023-02-19T06:25:11;101307.81;;;11.30;nan
3082;BME280;1551;51.046;7.010;2023-02-19T06:28:00;101276.34;;;11.01;nan
3082;BME280;1551;51.046;7.010;2023-02-19T06:30:49;101313.00;;;11.20;nan
3082;BME280;1551;51.046;7.010;2023-02-19T06:33:39;101313.00;;;11.20;nan
3082;BME280;1551;51.046;7.010;2023-02-19T06:36:28;101318.97;;;11.22;nan
3082;BME280;1551;51.046;7.010;2023-02-19T06:39:17;101320.72;;;11.18;nan
3082;BME280;1551;51.046;7.010;2023-02-19T06:42:06;101321.53;;;11.17;nan
3082;BME280;1551;51.046;7.010;2023-02-19T06:44:55;101325.78;;;11.21;nan
3082;BME280;1551;51.046;7.010;2023-02-19T06:47:44;101335.19;;;11.21;nan
3082;BME280;1551;51.046;7.010;2023-02-19T06:50:33;101307.94;;;10.97;nan
3082;BME280;1551;51.046;7.010;2023-02-19T06:53:22;101338.63;;;11.18;nan
3082;BME280;1551;51.046;7.010;2023-02-19T06:59:17;101348.00;;;11.19;nan
3082;BME280;1551;51.046;7.010;2023-02-19T07:02:10;101352.28;;;11.19;nan
3082;BME280;1551;51.046;7.010;2023-02-19T07:04:59;101356.56;;;11.17;nan
3082;BME280;1551;51.046;7.010;2023-02-19T07:07:48;101359.13;;;11.17;nan
3082;BME280;1551;51.046;7.010;2023-02-19T07:10:37;101365.09;;;11.14;nan
3082;BME280;1551;51.046;7.010;2023-02-19T07:13:26;101371.09;;;11.15;nan
3082;BME280;1551;51.046;7.010;2023-02-19T07:16:15;101374.47;;;11.14;nan
3082;BME280;1551;51.046;7.010;2023-02-19T07:19:05;101389.84;;;11.14;nan
3082;BME280;1551;51.046;7.010;2023-02-19T07:21:54;101391.56;;;11.16;nan
3082;BME280;1551;51.046;7.010;2023-02-19T07:24:43;101399.25;;;11.16;nan
3082;BME280;1551;51.046;7.010;2023-02-19T07:27:32;101384.75;;;11.17;nan
3082;BME280;1551;51.046;7.010;2023-02-19T07:30:21;101389.00;;;11.19;nan
3082;BME280;1551;51.046;7.010;2023-02-19T07:33:10;101399.25;;;11.19;nan
3082;BME280;1551;51.046;7.010;2023-02-19T07:36:00;101414.63;;;11.22;nan
3082;BME280;1551;51.046;7.010;2023-02-19T07:38:56;101416.34;;;11.26;nan
3082;BME280;1551;51.046;7.010;2023-02-19T07:41:46;101423.16;;;11.29;nan
3082;BME280;1551;51.046;7.010;2023-02-19T07:44:47;101425.72;;;11.30;nan
3082;BME280;1551;51.046;7.010;2023-02-19T07:47:36;101430.84;;;11.32;nan
3082;BME280;1551;51.046;7.010;2023-02-19T07:50:25;101441.09;;;11.29;nan
3082;BME280;1551;51.046;7.010;2023-02-19T07:53:14;101430.00;;;11.31;nan
3082;BME280;1551;51.046;7.010;2023-02-19T07:56:05;101435.97;;;11.39;nan
3082;BME280;1551;51.046;7.010;2023-02-19T07:58:54;101436.81;;;11.41;nan
3082;BME280;1551;51.046;7.010;2023-02-19T08:01:43;101453.91;;;11.38;nan
3082;BME280;1551;51.046;7.010;2023-02-19T08:04:51;101459.88;;;11.43;nan
3082;BME280;1551;51.046;7.010;2023-02-19T08:07:40;101465.88;;;11.39;nan
3082;BME280;1551;51.046;7.010;2023-02-19T08:10:29;101469.28;;;11.38;nan
3082;BME280;1551;51.046;7.010;2023-02-19T08:13:37;101471.84;;;11.42;nan
3082;BME280;1551;51.046;7.010;2023-02-19T08:16:26;101470.13;;;11.49;nan
3082;BME280;1551;51.046;7.010;2023-02-19T08:19:15;101475.25;;;11.50;nan
3082;BME280;1551;51.046;7.010;2023-02-19T08:22:04;101475.25;;;11.50;nan
3082;BME280;1551;51.046;7.010;2023-02-19T08:24:53;101481.22;;;11.60;nan
3082;BME280;1551;51.046;7.010;2023-02-19T08:27:42;101481.25;;;11.69;nan
3082;BME280;1551;51.046;7.010;2023-02-19T08:30:32;101483.78;;;11.64;nan
3082;BME280;1551;51.046;7.010;2023-02-19T08:33:21;101490.59;;;11.65;nan
3082;BME280;1551;51.046;7.010;2023-02-19T08:36:10;101494.03;;;11.67;nan
3082;BME280;1551;51.046;7.010;2023-02-19T08:38:59;101490.63;;;11.59;nan
3082;BME280;1551;51.046;7.010;2023-02-19T08:41:48;101503.44;;;11.78;nan
3082;BME280;1551;51.046;7.010;2023-02-19T08:44:37;101504.28;;;11.80;nan
3082;BME280;1551;51.046;7.010;2023-02-19T08:47:26;101506.84;;;11.84;nan
3082;BME280;1551;51.046;7.010;2023-02-19T08:50:15;101504.25;;;11.89;nan
3082;BME280;1551;51.046;7.010;2023-02-19T08:53:05;101496.56;;;11.92;nan
3082;BME280;1551;51.046;7.010;2023-02-19T08:55:54;101494.88;;;11.83;nan
3082;BME280;1551;51.046;7.010;2023-02-19T08:58:43;101500.00;;;11.91;nan
3082;BME280;1551;51.046;7.010;2023-02-19T09:01:33;101510.28;;;11.91;nan
3082;BME280;1551;51.046;7.010;2023-02-19T09:04:22;101517.09;;;11.92;nan
3082;BME280;1551;51.046;7.010;2023-02-19T09:07:11;101525.63;;;11.89;nan
3082;BME280;1551;51.046;7.010;2023-02-19T09:10:00;101519.66;;;11.98;nan
3082;BME280;1551;51.046;7.010;2023-02-19T09:12:49;101520.50;;;12.07;nan
3082;BME280;1551;51.046;7.010;2023-02-19T09:15:38;101523.06;;;12.04;nan
3082;BME280;1551;51.046;7.010;2023-02-19T09:18:27;101529.91;;;11.98;nan
3082;BME280;1551;51.046;7.010;2023-02-19T09:21:16;101532.44;;;12.01;nan
3082;BME280;1551;51.046;7.010;2023-02-19T09:24:07;101530.75;;;11.94;nan
3082;BME280;1551;51.046;7.010;2023-02-19T09:26:57;101540.16;;;12.01;nan
3082;BME280;1551;51.046;7.010;2023-02-19T09:29:46;101541.88;;;11.97;nan
3082;BME280;1551;51.046;7.010;2023-02-19T09:32:35;101541.88;;;11.96;nan
3082;BME280;1551;51.046;7.010;2023-02-19T09:35:24;101556.44;;;11.91;nan
3082;BME280;1551;51.046;7.010;2023-02-19T09:38:13;101550.44;;;11.87;nan
3082;BME280;1551;51.046;7.010;2023-02-19T09:41:08;101550.47;;;11.86;nan
3082;BME280;1551;51.046;7.010;2023-02-19T09:43:59;101555.59;;;11.86;nan
3082;BME280;1551;51.046;7.010;2023-02-19T09:46:50;101553.03;;;11.90;nan
3082;BME280;1551;51.046;7.010;2023-02-19T09:49:42;101558.16;;;11.86;nan
3082;BME280;1551;51.046;7.010;2023-02-19T09:52:40;101576.13;;;11.81;nan
3082;BME280;1551;51.046;7.010;2023-02-19T09:55:35;101570.97;;;11.87;nan
3082;BME280;1551;51.046;7.010;2023-02-19T09:58:29;101570.97;;;11.86;nan
3082;BME280;1551;51.046;7.010;2023-02-19T10:01:21;101572.66;;;11.94;nan
3082;BME280;1551;51.046;7.010;2023-02-19T10:04:13;101573.53;;;11.98;nan
3082;BME280;1551;51.046;7.010;2023-02-19T10:07:02;101575.25;;;11.81;nan
3082;BME280;1551;51.046;7.010;2023-02-19T10:10:01;101583.81;;;11.86;nan
3082;BME280;1551;51.046;7.010;2023-02-19T10:12:55;101574.38;;;12.01;nan
3082;BME280;1551;51.046;7.010;2023-02-19T10:15:53;101590.63;;;12.09;nan
3082;BME280;1551;51.046;7.010;2023-02-19T10:18:44;101599.16;;;11.96;nan
3082;BME280;1551;51.046;7.010;2023-02-19T10:21:36;101612.00;;;11.87;nan
3082;BME280;1551;51.046;7.010;2023-02-19T10:24:27;101627.38;;;11.89;nan
3082;BME280;1551;51.046;7.010;2023-02-19T10:27:17;101647.06;;;11.85;nan
3082;BME280;1551;51.046;7.010;2023-02-19T10:30:15;101641.91;;;11.74;nan
3082;BME280;1551;51.046;7.010;2023-02-19T10:33:12;101639.38;;;11.88;nan
3082;BME280;1551;51.046;7.010;2023-02-19T10:36:04;101631.66;;;12.14;nan
3082;BME280;1551;51.046;7.010;2023-02-19T10:38:55;101625.63;;;12.39;nan
3082;BME280;1551;51.046;7.010;2023-02-19T10:41:44;101645.31;;;12.41;nan
3082;BME280;1551;51.046;7.010;2023-02-19T10:44:42;101653.88;;;12.42;nan
3082;BME280;1551;51.046;7.010;2023-02-19T10:47:32;101665.91;;;12.14;nan
3082;BME280;1551;51.046;7.010;2023-02-19T10:50:31;101661.59;;;11.97;nan
3082;BME280;1551;51.046;7.010;2023-02-19T10:53:35;101669.31;;;11.91;nan
3082;BME280;1551;51.046;7.010;2023-02-19T10:56:27;101673.56;;;11.89;nan
3082;BME280;1551;51.046;7.010;2023-02-19T10:59:28;101671.03;;;11.99;nan
3082;BME280;1551;51.046;7.010;2023-02-19T11:02:19;101673.56;;;11.96;nan
3082;BME280;1551;51.046;7.010;2023-02-19T11:08:00;101682.88;;;12.77;nan
3082;BME280;1551;51.046;7.010;2023-02-19T11:10:49;101679.97;;;13.51;nan
3082;BME280;1551;51.046;7.010;2023-02-19T11:13:40;101678.16;;;13.67;nan
3082;BME280;1551;51.046;7.010;2023-02-19T11:19:42;101672.31;;;13.45;nan
3082;BME280;1551;51.046;7.010;2023-02-19T11:22:39;101680.09;;;13.36;nan
3082;BME280;1551;51.046;7.010;2023-02-19T11:25:30;101683.47;;;13.40;nan
3082;BME280;1551;51.046;7.010;2023-02-19T11:31:23;101678.50;;;13.09;nan
3082;BME280;1551;51.046;7.010;2023-02-19T11:37:10;101683.56;;;13.29;nan
3082;BME280;1551;51.046;7.010;2023-02-19T11:40:01;101677.63;;;13.12;nan
3082;BME280;1551;51.046;7.010;2023-02-19T11:43:14;101669.06;;;13.02;nan
3082;BME280;1551;51.046;7.010;2023-02-19T11:52:59;101669.09;;;13.01;nan
3082;BME280;1551;51.046;7.010;2023-02-19T11:56:06;101672.59;;;12.77;nan
3082;BME280;1551;51.046;7.010;2023-02-19T11:59:06;101676.91;;;12.65;nan
3082;BME280;1551;51.046;7.010;2023-02-19T12:02:11;101678.59;;;12.76;nan
3082;BME280;1551;51.046;7.010;2023-02-19T12:05:16;101671.63;;;13.15;nan
3082;BME280;1551;51.046;7.010;2023-02-19T12:08:54;101663.28;;;14.02;nan
3082;BME280;1551;51.046;7.010;2023-02-19T12:12:55;101661.22;;;14.42;nan
3082;BME280;1551;51.046;7.010;2023-02-19T12:27:25;101661.22;;;13.36;nan
3082;BME280;1551;51.046;7.010;2023-02-19T12:33:31;101674.03;;;13.39;nan
3082;BME280;1551;51.046;7.010;2023-02-19T12:43:05;101669.16;;;12.84;nan
3082;BME280;1551;51.046;7.010;2023-02-19T12:46:05;101683.75;;;12.70;nan
3082;BME280;1551;51.046;7.010;2023-02-19T12:49:38;101683.75;;;12.60;nan
3082;BME280;1551;51.046;7.010;2023-02-19T12:52:36;101684.63;;;12.63;nan
3082;BME280;1551;51.046;7.010;2023-02-19T12:55:33;101688.91;;;12.60;nan
3082;BME280;1551;51.046;7.010;2023-02-19T12:58:31;101684.59;;;12.69;nan
3082;BME280;1551;51.046;7.010;2023-02-19T13:01:27;101684.59;;;12.72;nan
3082;BME280;1551;51.046;7.010;2023-02-19T13:04:23;101681.19;;;12.70;nan
3082;BME280;1551;51.046;7.010;2023-02-19T13:07:23;101686.31;;;12.69;nan
3082;BME280;1551;51.046;7.010;2023-02-19T13:13:30;101700.00;;;12.69;nan
3082;BME280;1551;51.046;7.010;2023-02-19T13:16:22;101699.97;;;12.78;nan
3082;BME280;1551;51.046;7.010;2023-02-19T13:19:12;101699.13;;;12.73;nan
3082;BME280;1551;51.046;7.010;2023-02-19T13:22:13;101694.84;;;12.77;nan
3082;BME280;1551;51.046;7.010;2023-02-19T13:25:30;101687.06;;;12.99;nan
3082;BME280;1551;51.046;7.010;2023-02-19T13:32:12;101699.00;;;13.16;nan
3082;BME280;1551;51.046;7.010;2023-02-19T13:38:09;101685.91;;;13.64;nan
3082;BME280;1551;51.046;7.010;2023-02-19T13:40:59;101696.00;;;13.88;nan
3082;BME280;1551;51.046;7.010;2023-02-19T13:43:54;101694.13;;;14.07;nan
3082;BME280;1551;51.046;7.010;2023-02-19T13:46:45;101702.94;;;13.83;nan
3082;BME280;1551;51.046;7.010;2023-02-19T13:49:39;101708.13;;;13.74;nan
3082;BME280;1551;51.046;7.010;2023-02-19T13:58:53;101711.97;;;12.76;nan
3082;BME280;1551;51.046;7.010;2023-02-19T14:04:52;101730.00;;;12.43;nan
3082;BME280;1551;51.046;7.010;2023-02-19T14:07:51;101734.31;;;12.35;nan
3082;BME280;1551;51.046;7.010;2023-02-19T14:10:55;101724.91;;;12.20;nan
3082;BME280;1551;51.046;7.010;2023-02-19T14:23:08;101762.50;;;11.96;nan
3082;BME280;1551;51.046;7.010;2023-02-19T14:26:05;101765.06;;;11.81;nan
3082;BME280;1551;51.046;7.010;2023-02-19T14:28:55;101765.03;;;11.74;nan
3082;BME280;1551;51.046;7.010;2023-02-19T14:31:45;101764.19;;;11.72;nan
3082;BME280;1551;51.046;7.010;2023-02-19T14:34:34;101768.41;;;11.61;nan
3082;BME280;1551;51.046;7.010;2023-02-19T14:37:24;101771.00;;;11.67;nan
3082;BME280;1551;51.046;7.010;2023-02-19T14:40:30;101779.56;;;11.77;nan
3082;BME280;1551;51.046;7.010;2023-02-19T14:43:23;101789.84;;;11.82;nan
3082;BME280;1551;51.046;7.010;2023-02-19T14:49:24;101793.19;;;11.58;nan
3082;BME280;1551;51.046;7.010;2023-02-19T14:52:25;101781.22;;;11.63;nan
3082;BME280;1551;51.046;7.010;2023-02-19T14:55:26;101792.34;;;11.65;nan
3082;BME280;1551;51.046;7.010;2023-02-19T14:58:23;101800.88;;;11.64;nan
3082;BME280;1551;51.046;7.010;2023-02-19T15:01:26;101788.91;;;11.60;nan
3082;BME280;1551;51.046;7.010;2023-02-19T15:04:24;101782.97;;;11.70;nan
3082;BME280;1551;51.046;7.010;2023-02-19T15:07:18;101782.97;;;11.74;nan
3082;BME280;1551;51.046;7.010;2023-02-19T15:10:09;101782.16;;;11.74;nan
3082;BME280;1551;51.046;7.010;2023-02-19T15:13:01;101786.41;;;11.75;nan
3082;BME280;1551;51.046;7.010;2023-02-19T15:15:54;101771.88;;;11.72;nan
3082;BME280;1551;51.046;7.010;2023-02-19T15:18:45;101772.75;;;11.71;nan
3082;BME280;1551;51.046;7.010;2023-02-19T15:21:38;101766.69;;;11.60;nan
3082;BME280;1551;51.046;7.010;2023-02-19T15:24:32;101765.84;;;11.64;nan
3082;BME280;1551;51.046;7.010;2023-02-19T15:27:23;101758.97;;;11.59;nan
3082;BME280;1551;51.046;7.010;2023-02-19T15:30:22;101741.91;;;11.53;nan
3082;BME280;1551;51.046;7.010;2023-02-19T15:33:17;101748.78;;;11.68;nan
3082;BME280;1551;51.046;7.010;2023-02-19T15:36:08;101739.34;;;11.65;nan
3082;BME280;1551;51.046;7.010;2023-02-19T15:39:00;101744.44;;;11.61;nan
3082;BME280;1551;51.046;7.010;2023-02-19T15:41:53;101736.78;;;11.59;nan
3082;BME280;1551;51.046;7.010;2023-02-19T15:44:54;101735.94;;;11.60;nan
3082;BME280;1551;51.046;7.010;2023-02-19T15:50:46;101735.78;;;11.24;nan
3082;BME280;1551;51.046;7.010;2023-02-19T15:53:46;101726.41;;;11.20;nan
3082;BME280;1551;51.046;7.010;2023-02-19T15:56:38;101727.22;;;11.19;nan
3082;BME280;1551;51.046;7.010;2023-02-19T15:59:54;101726.38;;;11.19;nan
3082;BME280;1551;51.046;7.010;2023-02-19T16:02:45;101736.63;;;11.22;nan
3082;BME280;1551;51.046;7.010;2023-02-19T16:05:34;101733.22;;;11.21;nan
3082;BME280;1551;51.046;7.010;2023-02-19T16:08:33;101746.91;;;11.26;nan
3082;BME280;1551;51.046;7.010;2023-02-19T16:17:13;101752.06;;;11.35;nan
3082;BME280;1551;51.046;7.010;2023-02-19T16:20:04;101758.91;;;11.36;nan
3082;BME280;1551;51.046;7.010;2023-02-19T16:23:02;101758.91;;;11.33;nan
3082;BME280;1551;51.046;7.010;2023-02-19T16:26:00;101762.31;;;11.32;nan
3082;BME280;1551;51.046;7.010;2023-02-19T16:28:51;101762.34;;;11.37;nan
3082;BME280;1551;51.046;7.010;2023-02-19T16:31:47;101758.06;;;11.42;nan
3082;BME280;1551;51.046;7.010;2023-02-19T16:34:43;101776.03;;;11.43;nan
3082;BME280;1551;51.046;7.010;2023-02-19T16:37:39;101774.31;;;11.42;nan
3082;BME280;1551;51.046;7.010;2023-02-19T16:43:41;101770.03;;;11.37;nan
3082;BME280;1551;51.046;7.010;2023-02-19T16:46:31;101770.00;;;11.34;nan
3082;BME280;1551;51.046;7.010;2023-02-19T16:49:21;101783.69;;;11.36;nan
3082;BME280;1551;51.046;7.010;2023-02-19T16:52:13;101790.50;;;11.34;nan
3082;BME280;1551;51.046;7.010;2023-02-19T16:55:10;101797.34;;;11.33;nan
3082;BME280;1551;51.046;7.010;2023-02-19T16:58:00;101802.41;;;11.21;nan
3082;BME280;1551;51.046;7.010;2023-02-19T17:00:49;101807.50;;;11.15;nan
3082;BME280;1551;51.046;7.010;2023-02-19T17:03:38;101804.91;;;11.06;nan
3082;BME280;1551;51.046;7.010;2023-02-19T17:06:27;101811.72;;;11.04;nan
3082;BME280;1551;51.046;7.010;2023-02-19T17:09:17;101826.25;;;11.08;nan
3082;BME280;1551;51.046;7.010;2023-02-19T17:12:11;101828.72;;;10.96;nan
3082;BME280;1551;51.046;7.010;2023-02-19T17:15:00;101844.03;;;10.85;nan
3082;BME280;1551;51.046;7.010;2023-02-19T17:17:49;101844.81;;;10.77;nan
3082;BME280;1551;51.046;7.010;2023-02-19T17:20:39;101855.94;;;10.80;nan
3082;BME280;1551;51.046;7.010;2023-02-19T17:23:28;101860.25;;;10.83;nan
3082;BME280;1551;51.046;7.010;2023-02-19T17:26:19;101853.38;;;10.77;nan
3082;BME280;1551;51.046;7.010;2023-02-19T17:29:11;101872.16;;;10.78;nan
3082;BME280;1551;51.046;7.010;2023-02-19T17:32:01;101883.19;;;10.72;nan
3082;BME280;1551;51.046;7.010;2023-02-19T17:34:50;101882.31;;;10.70;nan
3082;BME280;1551;51.046;7.010;2023-02-19T17:37:39;101885.69;;;10.65;nan
3082;BME280;1551;51.046;7.010;2023-02-19T17:40:30;101889.91;;;10.60;nan
3082;BME280;1551;51.046;7.010;2023-02-19T17:43:19;101894.16;;;10.58;nan